createdAt,value
2018-11-25T14:09:15.238Z,52.60
2018-11-25T14:11:43.098Z,52.90
2018-11-25T14:14:11.157Z,52.80
2018-11-25T14:16:38.893Z,52.40
2018-11-25T14:19:06.766Z,52.60
2018-11-25T14:36:33.274Z,55.00
2018-11-25T14:39:02.285Z,57.20
2018-11-25T14:43:48.601Z,55.60
2018-11-25T14:46:16.372Z,58.20
2018-11-25T14:48:44.132Z,59.80
2018-11-25T14:51:11.850Z,66.20
2018-11-25T14:53:39.567Z,69.30
2018-11-25T14:56:07.296Z,71.70
2018-11-25T14:58:35.047Z,64.90
2018-11-25T15:01:02.805Z,67.80
2018-11-25T15:03:30.514Z,66.30
2018-11-25T15:05:58.834Z,68.50
2018-11-25T15:08:26.930Z,75.10
2018-11-25T15:10:54.663Z,70.20
2018-11-25T15:13:22.420Z,72.00
2018-11-25T15:15:50.200Z,69.00
2018-11-25T15:18:18.443Z,70.70
2018-11-25T15:20:46.181Z,72.80
2018-11-25T15:23:14.421Z,65.50
2018-11-25T15:25:46.151Z,69.30
2018-11-25T15:28:13.929Z,73.90
2018-11-25T15:30:41.702Z,73.60
2018-11-25T15:33:09.469Z,79.50
2018-11-25T15:35:37.207Z,70.80
2018-11-25T15:38:05.543Z,70.90
2018-11-25T15:40:34.042Z,69.90
2018-11-25T15:43:01.835Z,74.20
2018-11-25T15:45:29.551Z,71.10
2018-11-25T15:47:58.375Z,64.10
2018-11-25T15:50:26.888Z,75.40
2018-11-25T15:52:54.840Z,69.70
2018-11-25T15:55:22.723Z,74.40
2018-11-25T15:57:51.713Z,72.10
2018-11-25T16:00:19.711Z,80.90
2018-11-25T16:02:47.579Z,70.70
2018-11-25T16:05:16.163Z,74.30
2018-11-25T16:07:43.930Z,72.20
2018-11-25T16:10:12.437Z,75.00
2018-11-25T16:15:15.453Z,75.40
2018-11-25T16:17:43.171Z,73.60
2018-11-25T16:20:12.627Z,76.80
2018-11-25T16:22:40.371Z,77.10
2018-11-25T16:25:09.591Z,76.10
2018-11-25T16:27:37.366Z,74.60
2018-11-25T16:30:05.428Z,75.10
2018-11-25T16:32:33.227Z,75.60
2018-11-25T16:35:00.937Z,78.00
2018-11-25T16:37:28.639Z,78.20
2018-11-25T16:39:56.403Z,78.10
2018-11-25T16:42:24.136Z,78.80
2018-11-25T16:44:51.863Z,79.10
2018-11-25T16:47:19.573Z,79.70
2018-11-25T16:49:47.344Z,76.80
2018-11-25T16:52:15.063Z,78.40
2018-11-25T16:54:42.797Z,79.30
2018-11-25T16:57:10.519Z,79.10
2018-11-25T16:59:38.235Z,80.20
2018-11-25T17:02:06.007Z,80.10
2018-11-25T17:04:33.750Z,79.90
2018-11-25T17:07:01.577Z,80.50
2018-11-25T17:09:29.309Z,80.70
2018-11-25T17:11:57.028Z,81.20
2018-11-25T17:14:33.429Z,81.40
2018-11-25T17:16:52.564Z,82.00
2018-11-25T17:19:20.280Z,80.50
2018-11-25T17:21:48.026Z,79.70
2018-11-25T17:24:15.881Z,79.70
2018-11-25T17:26:43.618Z,81.40
2018-11-25T17:29:11.350Z,81.00
2018-11-25T17:31:39.108Z,81.20
2018-11-25T17:34:06.845Z,81.20
2018-11-25T17:36:34.628Z,81.80
2018-11-25T17:39:02.442Z,80.90
2018-11-25T17:41:30.239Z,80.40
2018-11-25T17:43:58.877Z,81.20
2018-11-25T17:46:26.682Z,81.60
2018-11-25T17:48:54.421Z,79.30
2018-11-25T17:51:22.131Z,79.70
2018-11-25T17:53:49.943Z,78.50
2018-11-25T17:56:18.309Z,79.70
2018-11-25T17:58:46.059Z,79.70
2018-11-25T18:01:13.789Z,79.80
2018-11-25T18:03:41.500Z,80.00
2018-11-25T18:06:09.295Z,83.60
2018-11-25T18:08:37.000Z,76.60
2018-11-25T18:11:04.817Z,76.70
2018-11-25T18:13:33.707Z,76.90
2018-11-25T18:16:02.231Z,78.50
2018-11-25T18:18:33.274Z,78.40
2018-11-25T18:21:01.916Z,79.60
2018-11-25T18:23:29.730Z,78.50
2018-11-25T18:25:57.454Z,78.80
2018-11-25T18:28:25.192Z,77.40
2018-11-25T18:30:52.933Z,80.60
2018-11-25T18:33:20.737Z,78.10
2018-11-25T18:35:48.504Z,77.00
2018-11-25T18:38:16.359Z,77.20
2018-11-25T18:40:44.116Z,79.00
2018-11-25T18:43:11.895Z,77.20
2018-11-25T18:45:39.702Z,78.00
2018-11-25T18:48:08.366Z,79.20
2018-11-25T18:50:36.263Z,79.80
2018-11-25T18:53:04.026Z,80.60
2018-11-25T18:55:31.238Z,76.50
2018-11-25T18:57:58.995Z,80.80
2018-11-25T19:00:36.354Z,82.00
2018-11-25T19:03:04.125Z,78.30
2018-11-25T19:05:31.861Z,76.20
2018-11-25T19:08:00.573Z,78.90
2018-11-25T19:10:28.407Z,81.00
2018-11-25T19:12:56.282Z,76.00
2018-11-25T19:15:24.648Z,78.10
2018-11-25T19:17:52.355Z,73.10
2018-11-25T19:20:21.393Z,77.00
2018-11-25T19:22:49.186Z,73.00
2018-11-25T19:25:17.250Z,73.50
2018-11-25T19:27:45.595Z,75.40
2018-11-25T19:30:13.816Z,74.40
2018-11-25T19:32:41.911Z,77.30
2018-11-25T19:35:10.935Z,70.90
2018-11-25T19:37:38.723Z,76.20
2018-11-25T19:40:12.198Z,69.70
2018-11-25T19:42:40.128Z,73.30
2018-11-25T19:45:09.262Z,68.30
2018-11-25T19:47:37.076Z,68.80
2018-11-25T19:50:06.697Z,71.30
2018-11-25T19:52:34.444Z,75.90
2018-11-25T19:55:02.230Z,75.40
2018-11-25T19:57:30.090Z,70.90
2018-11-25T19:59:57.841Z,70.60
2018-11-25T20:02:25.574Z,76.50
2018-11-25T20:04:53.919Z,71.50
2018-11-25T20:07:21.651Z,71.90
2018-11-25T20:09:49.394Z,74.80
2018-11-25T20:12:17.529Z,72.40
2018-11-25T20:14:45.261Z,78.10
2018-11-25T20:17:18.313Z,71.00
2018-11-25T20:19:46.067Z,77.60
2018-11-25T20:22:19.343Z,73.70
2018-11-25T20:24:47.209Z,75.40
2018-11-25T20:27:20.485Z,75.30
2018-11-25T20:29:48.209Z,73.00
2018-11-25T20:33:25.129Z,73.80
2018-11-25T20:35:52.881Z,74.50
2018-11-25T20:38:25.961Z,74.80
2018-11-25T20:40:53.748Z,73.50
2018-11-25T20:43:21.479Z,77.00
2018-11-25T20:45:54.610Z,70.40
2018-11-25T20:48:22.324Z,75.20
2018-11-25T20:50:50.045Z,74.20
2018-11-25T20:53:23.348Z,75.30
2018-11-25T20:55:51.281Z,76.90
2018-11-25T20:58:19.088Z,78.20
2018-11-25T21:00:46.833Z,76.40
2018-11-25T21:03:15.190Z,78.00
2018-11-25T21:05:42.926Z,78.40
2018-11-25T21:08:10.695Z,77.50
2018-11-25T21:10:38.502Z,77.60
2018-11-25T21:13:07.290Z,75.30
2018-11-25T21:15:35.054Z,79.60
2018-11-25T21:18:02.812Z,78.80
2018-11-25T21:20:30.590Z,75.70
2018-11-25T21:22:58.337Z,72.00
2018-11-25T21:25:26.084Z,73.70
2018-11-25T21:27:53.883Z,78.50
2018-11-25T21:30:23.366Z,74.50
